Pagrindinis puslapis
METAR-TAF:

METAR-TAF

Oro uostai :

Abu Dabis, Jungtiniai Arabų Emyratai

platuma: 24-26N, ilguma: 054-28E, Aukštis: 5 m

Dabartinis oras

Ataskaita buvo paskelbta 40 minutes, ne 02:00 UTC
Vėjas 4 kt iš Pietvakarių, svyruoja nuo Pietų ir Vakarų/Pietvakarių
Temperatūra 29°C
Drėgmė 79%
Slėgis 998 hPa
Matomumas: 8000 m

METAR: OMAD 170200Z 22004KT 170V250 8000 NSC 29/25 Q0998 NOSIG

Laikas: 06:40 (02:40 UTC)

Prognozė

Ataskaita buvo paskelbta 3 valandos ir 40 minutes, ne 23:00 UTC
Prognozė galioja nuo 17 metu 00 UTC su 18 metu 06 UTC
Vėjas 6 kt iš Pietų/Pietvakarių
Matomumas: 8000 m
Tapsmas
nuo 17 metu 04 UTC su 17 metu 06 UTC
Vėjas 15 kt iš Šiaurės Vakarų
Tikimybė 40%
nuo 17 metu 05 UTC su 17 metu 13 UTC
Matomumas: 3000 m
dulkės
Tapsmas
nuo 17 metu 18 UTC su 17 metu 20 UTC
Vėjas 5 kt iš Vakarų/Pietvakarių

TAF: OMAD 162300Z 1700/1806 20006KT 8000 NSC BECMG 1704/1706 31015KT PROB40 1705/1713 3000 DU BECMG 1718/1720 24005KT

Orai ataskaitas ir orų prognozės (METAR, TAF).

turimą stotys yra geltonos ir raudonos taškus žemėlapyje.

Perkelti pele per norėdami pamatyti stoties vardą.

Tada spustelėkite, norėdami matyti oro stebėjimo ir prognozės.

Norėdami pakeisti žemėlapį: spustelėkite ant žalios mygtukų su juodo kryžiaus žemyn,; žalią mygtuką su brūkšneliu, jei norite nutolinti; arba žalių rodyklių gretimoms žemėlapius.


METAR-TAF: